X  Lukk Metar værinformasjon om luftfart     ENZV Stavanger Airport, Sola
Temperatur
20°C Temperatur
17°C Duggpunkt
83% Luftfuktighet



Vind
3 M/S
7 MPT
11 KM/T
6 KNP



120°
ØSØ
Nåværende forhold

Delvis overskyet Delvis overskyet
Trykk 1004.92 (hPa) - 29.68 (inHg)
Sikt 6.2 (mil) - 10 (km)
Flyplass
Flyplass-kode ENZV

Plassering: Stavanger Airport, Sola
Avstand: 15 (km)

Metar:
ENZV 161320Z 12006KT 9999 FEW028CB BKN084 BKN110 20/17 Q1005

Tid: 16-08-2022 15:20 CEST